Time;durP1;ratioP1;P1;durP2;ratioP2;P2;SDS_P1;SDS_P2;PMS_P1;PMS_P2;Temp;Humidity;BMP_temperature;BMP_pressure;BME280_temperature;BME280_humidity;BME280_pressure;Samples;Min_cycle;Max_cycle;Signal;HPM_P1;HPM_P2
2021/05/08 00:04:05;;;;;;;2.67;2.25;;;;;;;5.76;59.54;100302.63;10545472;28;20044;-69
2021/05/08 00:09:07;;;;;;;2.20;2.00;;;;;;;5.75;59.44;100297.41;10544667;28;20424;-69
2021/05/08 00:14:08;;;;;;;1.95;1.80;;;;;;;5.56;59.75;100296.69;10545896;28;20036;-69
2021/05/08 00:19:09;;;;;;;2.40;2.10;;;;;;;5.44;59.90;100305.44;10544960;28;20044;-70
2021/05/08 00:24:11;;;;;;;3.15;2.20;;;;;;;5.49;59.57;100311.53;10544582;28;20063;-69
2021/05/08 00:29:12;;;;;;;3.67;2.25;;;;;;;5.46;59.51;100301.13;10529292;28;20078;-70
2021/05/08 00:34:14;;;;;;;3.28;2.20;;;;;;;5.48;59.12;100304.56;10544547;28;20044;-70
2021/05/08 00:39:15;;;;;;;2.40;2.00;;;;;;;5.49;58.99;100303.72;10544202;28;20051;-70
2021/05/08 00:44:16;;;;;;;2.50;2.30;;;;;;;5.42;59.22;100304.59;10543196;28;20111;-69
2021/05/08 00:49:25;;;;;;;2.42;2.17;;;;;;;5.35;59.40;100312.47;10543619;28;20044;-69
2021/05/08 00:54:27;;;;;;;3.90;2.28;;;;;;;5.15;59.75;100310.84;10542838;28;20040;-70
2021/05/08 00:59:29;;;;;;;2.40;2.20;;;;;;;5.14;59.71;100309.13;10543857;28;20062;-69
2021/05/08 01:04:32;;;;;;;2.47;2.28;;;;;;;5.18;59.56;100313.47;10543490;28;20052;-69
2021/05/08 01:09:33;;;;;;;2.03;1.80;;;;;;;5.20;59.02;100308.22;10508547;28;20055;-70
2021/05/08 01:14:35;;;;;;;1.92;1.70;;;;;;;5.19;58.87;100316.91;10525953;28;20036;-70
2021/05/08 01:19:37;;;;;;;4.55;2.22;;;;;;;5.18;58.98;100312.56;10543137;28;20067;-70
2021/05/08 01:24:38;;;;;;;4.20;2.38;;;;;;;5.11;58.93;100308.28;10542997;28;20040;-69
2021/05/08 01:29:40;;;;;;;2.40;2.20;;;;;;;5.26;58.44;100310.78;10524768;28;20048;-70
2021/05/08 01:34:42;;;;;;;2.45;2.00;;;;;;;5.25;58.24;100307.31;10542987;28;20048;-70
2021/05/08 01:39:43;;;;;;;2.35;1.98;;;;;;;5.29;57.92;100310.78;10543244;28;20036;-70
2021/05/08 01:44:44;;;;;;;4.35;2.15;;;;;;;5.15;58.16;100313.47;10542351;28;20063;-69
2021/05/08 01:49:47;;;;;;;2.75;1.90;;;;;;;5.12;58.60;100312.59;10524328;28;20079;-70
2021/05/08 01:54:49;;;;;;;4.38;2.30;;;;;;;5.03;58.57;100309.16;10542387;28;20123;-69
2021/05/08 01:59:50;;;;;;;2.58;2.03;;;;;;;5.00;58.43;100309.19;10543050;28;20043;-69
2021/05/08 02:04:53;;;;;;;4.18;2.42;;;;;;;5.01;58.34;100313.53;10525019;28;20044;-69
2021/05/08 02:09:54;;;;;;;2.53;2.05;;;;;;;4.98;58.03;100313.53;10551165;28;20043;-70
2021/05/08 02:14:56;;;;;;;2.95;1.88;;;;;;;4.98;58.22;100307.47;10549768;28;20036;-70
2021/05/08 02:19:58;;;;;;;2.22;2.00;;;;;;;5.08;57.60;100306.53;10550217;28;20116;-69
2021/05/08 02:24:59;;;;;;;2.15;1.95;;;;;;;4.99;57.64;100307.44;10531581;28;20048;-70
2021/05/08 02:30:04;;;;;;;1.88;1.70;;;;;;;5.06;57.65;100314.38;10530786;28;20087;-70
2021/05/08 02:35:08;;;;;;;2.08;1.90;;;;;;;4.99;57.67;100317.88;10548475;28;20039;-70
2021/05/08 02:40:16;;;;;;;2.58;1.73;;;;;;;4.93;57.72;100320.50;10532703;28;20044;-71
2021/05/08 02:45:19;;;;;;;2.15;1.80;;;;;;;4.95;57.66;100323.09;10549521;28;20036;-68
2021/05/08 02:50:22;;;;;;;1.65;1.30;;;;;;;4.99;57.55;100330.03;10549514;28;20077;-70
2021/05/08 02:55:29;;;;;;;2.90;1.90;;;;;;;5.02;57.18;100327.41;10549401;28;20044;-70
2021/05/08 03:00:31;;;;;;;2.17;1.85;;;;;;;4.97;57.70;100329.19;10530814;28;20044;-69
2021/05/08 03:05:35;;;;;;;3.13;2.50;;;;;;;4.90;57.90;100327.47;10531125;28;20104;-71
2021/05/08 03:10:45;;;;;;;2.42;2.15;;;;;;;5.14;57.55;100322.16;10531414;28;20075;-69
2021/05/08 03:15:49;;;;;;;2.22;1.88;;;;;;;5.15;57.05;100323.03;10547828;28;20076;-70
2021/05/08 03:20:51;;;;;;;3.05;2.33;;;;;;;5.36;56.45;100325.53;10529310;28;20482;-69
2021/05/08 03:25:53;;;;;;;1.95;1.80;;;;;;;5.27;56.53;100329.03;10547285;28;20036;-70
2021/05/08 03:30:54;;;;;;;2.40;2.20;;;;;;;5.35;56.18;100339.41;10528142;28;20048;-70
2021/05/08 03:35:56;;;;;;;2.70;2.05;;;;;;;5.28;56.89;100337.72;10546798;28;20566;-70
2021/05/08 03:40:58;;;;;;;3.28;2.22;;;;;;;5.13;57.21;100333.44;10528283;28;20044;-69
2021/05/08 03:46:00;;;;;;;5.78;2.28;;;;;;;5.05;57.15;100353.47;10546180;28;20089;-70
2021/05/08 03:51:02;;;;;;;2.92;2.42;;;;;;;4.76;58.04;100354.44;10547509;28;20043;-69
2021/05/08 03:56:04;;;;;;;2.83;2.17;;;;;;;4.83;58.19;100364.84;10547122;28;20043;-70
2021/05/08 04:01:05;;;;;;;3.22;2.63;;;;;;;4.61;58.20;100361.44;10547004;28;20379;-70
2021/05/08 04:06:06;;;;;;;3.83;3.00;;;;;;;4.77;58.01;100360.50;10546047;28;20044;-70
2021/05/08 04:11:07;;;;;;;4.55;3.03;;;;;;;4.75;58.39;100362.25;10545134;28;20521;-69
2021/05/08 04:16:09;;;;;;;2.83;2.50;;;;;;;4.92;57.77;100367.41;10546589;28;20119;-71
2021/05/08 04:21:10;;;;;;;3.17;2.88;;;;;;;4.77;58.19;100371.78;10546177;28;20401;-71
2021/05/08 04:26:11;;;;;;;3.05;2.80;;;;;;;5.05;57.40;100372.56;10546848;28;20048;-70
2021/05/08 04:31:13;;;;;;;3.10;2.80;;;;;;;5.14;57.05;100369.06;10526213;28;20048;-71
2021/05/08 04:36:14;;;;;;;3.33;2.63;;;;;;;5.21;56.75;100368.16;10527269;28;20059;-70
2021/05/08 04:41:15;;;;;;;3.55;3.25;;;;;;;5.23;57.00;100373.38;10545025;28;20073;-70
2021/05/08 04:46:16;;;;;;;3.15;2.85;;;;;;;5.46;56.34;100371.50;10544549;28;20040;-71
2021/05/08 04:51:19;;;;;;;3.38;3.08;;;;;;;5.56;56.13;100373.19;10526180;28;20056;-70
2021/05/08 04:56:22;;;;;;;4.38;3.83;;;;;;;5.63;56.23;100374.03;10543328;28;20109;-70
2021/05/08 05:01:24;;;;;;;3.65;3.33;;;;;;;5.84;55.74;100378.22;10525084;28;20073;-71
2021/05/08 05:06:25;;;;;;;3.58;3.22;;;;;;;5.99;55.52;100380.75;10525572;28;20066;-69
2021/05/08 05:11:26;;;;;;;4.15;3.30;;;;;;;6.18;55.16;100380.59;10543967;28;20036;-70
2021/05/08 05:16:28;;;;;;;2.80;2.58;;;;;;;6.39;54.45;100388.25;10543070;28;20074;-71
2021/05/08 05:21:29;;;;;;;3.00;2.80;;;;;;;6.42;55.16;100382.13;10543357;28;20036;-70
2021/05/08 05:26:30;;;;;;;3.28;2.88;;;;;;;6.86;53.05;100384.28;10525759;28;20527;-70
2021/05/08 05:31:31;;;;;;;3.50;3.03;;;;;;;7.01;52.83;100383.25;10542159;28;20052;-70
2021/05/08 05:36:33;;;;;;;3.08;2.78;;;;;;;7.22;52.37;100388.25;10543185;28;20412;-70
2021/05/08 05:41:34;;;;;;;3.42;3.13;;;;;;;7.34;52.06;100392.44;10546933;28;20036;-69
2021/05/08 05:46:35;;;;;;;4.00;3.63;;;;;;;7.75;51.35;100388.41;10532628;28;20051;-70
2021/05/08 05:51:36;;;;;;;3.55;3.25;;;;;;;8.10;50.91;100390.44;10550417;28;20044;-70
2021/05/08 05:56:38;;;;;;;3.80;3.50;;;;;;;8.87;49.26;100400.50;10549230;28;20032;-70
2021/05/08 06:01:39;;;;;;;4.10;3.72;;;;;;;9.38;48.25;100391.63;10550313;28;20474;-69
2021/05/08 06:06:40;;;;;;;4.32;4.03;;;;;;;9.54;48.04;100391.25;10547514;28;20118;-70
2021/05/08 06:11:42;;;;;;;4.35;3.92;;;;;;;10.25;46.42;100389.66;10547850;28;20048;-70
2021/05/08 06:16:43;;;;;;;4.40;4.00;;;;;;;10.55;45.58;100383.63;10547630;28;20535;-70
2021/05/08 06:21:44;;;;;;;4.00;3.70;;;;;;;10.97;45.81;100385.13;10548011;28;20036;-70
2021/05/08 06:26:46;;;;;;;3.80;3.50;;;;;;;11.22;44.19;100388.81;10546800;28;20044;-69
2021/05/08 06:31:47;;;;;;;4.65;4.00;;;;;;;11.53;43.26;100388.75;10546545;28;20044;-71
2021/05/08 06:36:49;;;;;;;4.25;3.95;;;;;;;11.58;42.95;100392.13;10546700;28;20063;-71
2021/05/08 06:41:50;;;;;;;4.55;4.15;;;;;;;11.79;42.63;100387.13;10511489;28;20048;-70
2021/05/08 06:46:55;;;;;;;4.38;4.07;;;;;;;11.70;41.30;100388.25;10527948;28;20047;-70
2021/05/08 06:51:56;;;;;;;4.70;4.40;;;;;;;11.77;42.38;100396.81;10545175;28;20094;-71
2021/05/08 06:57:02;;;;;;;6.20;5.65;;;;;;;11.16;42.48;100401.28;10546096;28;20122;-70
2021/05/08 07:02:04;;;;;;;5.82;5.32;;;;;;;11.61;42.73;100399.06;10527418;28;20037;-70
2021/05/08 07:07:06;;;;;;;7.90;7.30;;;;;;;11.29;42.31;100392.13;10510901;28;20060;-70
2021/05/08 07:12:08;;;;;;;6.88;6.38;;;;;;;11.19;41.25;100402.03;10545443;28;20051;-70
2021/05/08 07:17:09;;;;;;;7.05;6.45;;;;;;;11.06;41.44;100401.53;10527791;28;20559;-71
2021/05/08 07:22:11;;;;;;;6.65;5.97;;;;;;;11.27;42.03;100402.69;10545625;28;20048;-71
2021/05/08 07:27:12;;;;;;;6.93;6.38;;;;;;;11.35;41.62;100400.69;10526115;28;20044;-71
2021/05/08 07:32:14;;;;;;;6.47;6.07;;;;;;;11.52;43.26;100400.22;10544866;28;20036;-70
2021/05/08 07:37:15;;;;;;;5.70;5.30;;;;;;;11.74;41.36;100402.19;10544035;28;20045;-71
2021/05/08 07:42:16;;;;;;;6.95;6.28;;;;;;;11.51;41.16;100390.59;10543400;28;20379;-71
2021/05/08 07:47:18;;;;;;;6.13;5.63;;;;;;;11.74;41.13;100394.31;10543258;28;20091;-71
2021/05/08 07:52:19;;;;;;;6.38;5.78;;;;;;;11.95;42.04;100404.19;10525040;28;20139;-71
2021/05/08 07:57:21;;;;;;;6.15;5.65;;;;;;;11.70;41.60;100405.84;10525821;28;20071;-72
2021/05/08 08:02:23;;;;;;;5.60;5.15;;;;;;;11.81;41.13;100411.63;10543690;28;20417;-73
2021/05/08 08:07:25;;;;;;;6.45;5.95;;;;;;;12.16;40.74;100410.53;10525056;28;20074;-71
2021/05/08 08:12:26;;;;;;;7.50;6.90;;;;;;;12.21;38.96;100410.41;10542797;28;20047;-71
2021/05/08 08:17:29;;;;;;;7.40;6.78;;;;;;;12.40;39.62;100411.53;10542233;28;20497;-71
2021/05/08 08:22:31;;;;;;;6.07;5.57;;;;;;;12.91;39.86;100417.69;10543838;28;20374;-72
2021/05/08 08:27:32;;;;;;;5.55;5.15;;;;;;;13.07;39.34;100403.91;10542290;28;20040;-71
2021/05/08 08:32:34;;;;;;;8.85;8.20;;;;;;;12.75;38.30;100417.38;10541906;28;20032;-70
2021/05/08 08:37:35;;;;;;;7.63;7.03;;;;;;;13.15;38.29;100414.19;10523875;28;20048;-71
2021/05/08 08:42:37;;;;;;;8.57;7.97;;;;;;;13.16;37.06;100407.13;10539306;28;20044;-71
2021/05/08 08:47:39;;;;;;;9.45;8.75;;;;;;;13.31;37.44;100414.53;10539724;28;20044;-71
2021/05/08 08:52:41;;;;;;;8.60;8.00;;;;;;;13.64;36.81;100409.75;10538730;28;20113;-71
2021/05/08 08:57:44;;;;;;;8.77;7.63;;;;;;;13.66;36.88;100402.63;10522181;28;20051;-71
2021/05/08 09:02:48;;;;;;;8.68;8.00;;;;;;;14.08;36.78;100421.22;10524233;28;20420;-71
2021/05/08 09:07:51;;;;;;;7.85;7.35;;;;;;;14.04;38.16;100397.63;10533988;28;20132;-70
2021/05/08 09:12:55;;;;;;;7.63;7.13;;;;;;;14.81;34.08;100390.00;10505015;28;20048;-70
2021/05/08 09:17:56;;;;;;;7.57;6.97;;;;;;;14.34;35.32;100392.84;10531574;28;20086;-71
2021/05/08 09:22:57;;;;;;;6.70;6.22;;;;;;;15.00;33.37;100396.19;10512803;28;20075;-70
2021/05/08 09:27:59;;;;;;;7.40;6.80;;;;;;;14.89;34.59;100395.84;10529649;28;20047;-71
2021/05/08 09:33:02;;;;;;;6.40;6.00;;;;;;;14.70;32.08;100392.25;10536094;28;20048;-70
2021/05/08 09:38:16;;;;;;;6.95;6.40;;;;;;;14.36;33.16;100385.72;10554018;28;20044;-70
2021/05/08 09:43:20;;;;;;;5.72;5.32;;;;;;;14.24;33.92;100395.00;10519027;28;20040;-71
2021/05/08 09:48:26;;;;;;;5.60;5.13;;;;;;;14.98;33.57;100395.44;10553946;28;20399;-72
2021/05/08 09:53:40;;;;;;;6.07;5.57;;;;;;;14.77;35.46;100386.63;10554134;28;20085;-71
2021/05/08 09:58:41;;;;;;;3.88;3.58;;;;;;;14.33;32.53;100388.50;10554314;28;20105;-70
2021/05/08 10:03:42;;;;;;;3.67;3.38;;;;;;;14.24;33.85;100380.94;10535873;28;20106;-70
2021/05/08 10:08:51;;;;;;;4.22;3.80;;;;;;;14.67;30.81;100363.28;10555768;28;20071;-71
2021/05/08 10:13:53;;;;;;;5.13;4.38;;;;;;;14.98;33.35;100368.94;10555353;28;20089;-71
2021/05/08 10:18:54;;;;;;;4.25;3.85;;;;;;;15.47;32.45;100368.50;10535553;28;20094;-71
2021/05/08 10:23:56;;;;;;;3.72;3.10;;;;;;;15.28;30.60;100369.38;10553826;28;20040;-70
2021/05/08 10:28:58;;;;;;;3.08;2.40;;;;;;;15.00;29.54;100366.22;10548146;28;20040;-70
2021/05/08 10:33:59;;;;;;;2.38;2.28;;;;;;;15.72;31.55;100357.66;10546972;28;20044;-70
2021/05/08 10:39:05;;;;;;;3.30;2.90;;;;;;;15.14;30.58;100354.09;10546858;28;20097;-70
2021/05/08 10:44:07;;;;;;;2.70;2.50;;;;;;;14.74;31.57;100356.78;10528516;28;20481;-70
2021/05/08 10:49:12;;;;;;;2.80;2.60;;;;;;;15.67;28.63;100351.69;10545806;28;20044;-71
2021/05/08 10:54:39;;;;;;;2.53;2.33;;;;;;;15.37;30.08;100342.44;10528518;28;20051;-71
2021/05/08 11:00:02;;;;;;;2.33;2.13;;;;;;;16.05;28.85;100337.44;10516494;28;20051;-71
2021/05/08 11:05:25;;;;;;;2.45;2.25;;;;;;;15.79;28.62;100337.84;10508447;28;20571;-71
2021/05/08 11:10:32;;;;;;;1.70;1.58;;;;;;;16.47;30.03;100330.03;10486260;28;20068;-70
2021/05/08 11:15:52;;;;;;;1.63;1.40;;;;;;;16.49;26.13;100323.72;10503047;28;20086;-71
2021/05/08 11:20:54;;;;;;;1.50;1.40;;;;;;;16.78;27.82;100321.41;10503602;28;20044;-71
2021/05/08 11:25:55;;;;;;;2.00;1.58;;;;;;;16.63;25.46;100313.25;10503525;28;20107;-70
2021/05/08 11:30:56;;;;;;;2.28;1.95;;;;;;;16.17;26.97;100300.66;10486541;28;20052;-70
2021/05/08 11:36:03;;;;;;;2.05;1.85;;;;;;;16.21;28.37;100307.50;10503147;28;20090;-70
2021/05/08 11:41:19;;;;;;;2.60;2.40;;;;;;;16.70;27.02;100320.91;10503790;28;20048;-73
2021/05/08 11:46:31;;;;;;;2.17;1.90;;;;;;;16.97;28.01;100306.19;10505254;28;20036;-71
2021/05/08 11:51:32;;;;;;;1.75;1.65;;;;;;;16.62;29.67;100292.09;10505540;28;20045;-72
2021/05/08 11:56:34;;;;;;;2.40;1.83;;;;;;;17.17;27.50;100299.78;10504855;28;20098;-71
2021/05/08 12:01:35;;;;;;;2.45;2.03;;;;;;;16.40;26.74;100292.38;10504206;28;20037;-72
2021/05/08 12:06:38;;;;;;;2.67;2.30;;;;;;;15.96;29.03;100284.00;10506278;28;20048;-71
2021/05/08 12:11:39;;;;;;;2.67;1.60;;;;;;;15.84;30.24;100275.72;10504956;28;20417;-72
2021/05/08 12:16:42;;;;;;;2.90;2.70;;;;;;;16.38;28.95;100276.53;10503558;28;20047;-71
2021/05/08 12:21:43;;;;;;;2.25;2.05;;;;;;;16.60;28.88;100257.69;10487241;28;20490;-74
2021/05/08 12:26:48;;;;;;;1.80;1.70;;;;;;;16.70;28.72;100257.19;10492744;28;20051;-71
2021/05/08 12:31:50;;;;;;;2.35;2.15;;;;;;;16.92;29.17;100249.81;10507349;28;20037;-73
2021/05/08 12:37:04;;;;;;;2.08;1.67;;;;;;;17.17;27.69;100232.50;10506155;28;20460;-72
2021/05/08 12:42:06;;;;;;;1.52;1.38;;;;;;;17.46;27.42;100233.53;10491351;28;20048;-72
2021/05/08 12:47:17;;;;;;;1.80;1.30;;;;;;;17.26;28.42;100232.84;10505544;28;20052;-72
2021/05/08 12:52:24;;;;;;;1.92;1.55;;;;;;;16.87;29.15;100222.66;10503075;28;20036;-73
2021/05/08 12:57:32;;;;;;;1.92;1.60;;;;;;;17.08;28.35;100221.47;10502550;28;20105;-72
2021/05/08 13:02:34;;;;;;;2.13;1.40;;;;;;;17.30;27.03;100213.13;10502464;28;20040;-73
2021/05/08 13:07:38;;;;;;;1.40;1.30;;;;;;;17.09;27.86;100211.72;10502489;28;20071;-73
2021/05/08 13:12:39;;;;;;;3.42;1.98;;;;;;;16.76;28.27;100212.63;10502725;28;20040;-71
2021/05/08 13:17:49;;;;;;;3.45;1.80;;;;;;;16.71;29.46;100203.16;10504339;28;20040;-71
2021/05/08 13:22:50;;;;;;;1.80;1.23;;;;;;;16.80;30.07;100202.69;10502911;28;20106;-72
2021/05/08 13:27:52;;;;;;;2.30;1.58;;;;;;;16.80;28.98;100202.69;10504155;28;20050;-72
2021/05/08 13:32:55;;;;;;;3.05;1.88;;;;;;;16.78;29.77;100199.28;10502074;28;20457;-71
2021/05/08 13:37:59;;;;;;;2.90;1.65;;;;;;;16.24;28.26;100191.47;10508703;28;20411;-73
2021/05/08 13:43:01;;;;;;;1.52;1.40;;;;;;;16.33;29.16;100195.44;10486931;28;20036;-70
2021/05/08 13:48:02;;;;;;;1.92;1.40;;;;;;;16.23;29.89;100188.94;10469130;28;20055;-73
2021/05/08 13:53:04;;;;;;;2.55;1.80;;;;;;;16.37;30.00;100175.78;10504931;28;20162;-72
2021/05/08 13:58:05;;;;;;;2.30;1.55;;;;;;;16.68;30.72;100161.72;10504326;28;20098;-72
2021/05/08 14:03:06;;;;;;;1.45;1.35;;;;;;;16.60;29.24;100151.53;10509401;28;20066;-72
2021/05/08 14:08:08;;;;;;;1.92;1.52;;;;;;;16.70;31.71;100153.69;10511487;28;20040;-72
2021/05/08 14:13:09;;;;;;;2.00;1.73;;;;;;;16.76;29.32;100151.56;10511674;28;20098;-71
2021/05/08 14:18:10;;;;;;;1.73;1.52;;;;;;;16.62;28.50;100144.34;10511498;28;20448;-72
2021/05/08 14:23:12;;;;;;;1.55;1.20;;;;;;;16.32;28.15;100143.34;10509552;28;20127;-70
2021/05/08 14:28:13;;;;;;;2.33;1.30;;;;;;;16.10;29.18;100136.53;10508320;28;20079;-70
2021/05/08 14:33:14;;;;;;;2.38;1.10;;;;;;;15.85;30.25;100141.41;10506670;28;20056;-71
2021/05/08 14:38:15;;;;;;;1.63;1.20;;;;;;;16.10;29.35;100127.72;10506200;28;20045;-70
2021/05/08 14:43:17;;;;;;;1.95;1.25;;;;;;;16.22;29.02;100118.25;10506734;28;20053;-71
2021/05/08 14:48:23;;;;;;;1.73;1.17;;;;;;;16.20;31.33;100120.97;10506039;28;20497;-70
2021/05/08 14:53:24;;;;;;;1.25;1.05;;;;;;;16.42;28.65;100111.84;10505191;28;20042;-71
2021/05/08 14:58:26;;;;;;;1.20;1.10;;;;;;;16.71;29.74;100108.47;10506008;28;20044;-70
2021/05/08 15:03:27;;;;;;;1.63;1.23;;;;;;;16.42;28.95;100106.56;10505509;28;20049;-70
2021/05/08 15:08:29;;;;;;;2.55;1.45;;;;;;;16.58;30.53;100113.59;10505571;28;20045;-70
2021/05/08 15:13:30;;;;;;;1.10;1.00;;;;;;;16.57;27.97;100095.97;10504103;28;20044;-69
2021/05/08 15:18:32;;;;;;;1.23;1.10;;;;;;;16.19;29.29;100081.28;10504306;28;20076;-69
2021/05/08 15:23:34;;;;;;;1.40;0.80;;;;;;;15.77;30.57;100086.16;10503523;28;20033;-71
2021/05/08 15:28:35;;;;;;;1.70;0.82;;;;;;;15.77;29.54;100080.00;10503386;28;20131;-70
2021/05/08 15:33:37;;;;;;;1.23;0.98;;;;;;;15.81;30.29;100076.25;10485562;28;20032;-70
2021/05/08 15:38:39;;;;;;;1.17;0.80;;;;;;;15.95;29.27;100062.25;10502551;28;20045;-70
2021/05/08 15:43:40;;;;;;;1.58;0.75;;;;;;;16.95;28.73;100054.94;10484950;28;20033;-70
2021/05/08 15:48:42;;;;;;;1.45;1.00;;;;;;;17.26;28.04;100052.19;10503216;28;20048;-71
2021/05/08 15:53:43;;;;;;;1.83;1.05;;;;;;;17.29;28.83;100048.53;10484205;28;20094;-73
2021/05/08 15:58:44;;;;;;;1.35;0.88;;;;;;;18.38;27.82;100035.59;10501862;28;20044;-72
2021/05/08 16:03:46;;;;;;;0.80;0.80;;;;;;;17.93;27.92;100034.03;10485063;28;20029;-71
2021/05/08 16:08:47;;;;;;;1.15;1.05;;;;;;;17.17;28.84;100028.84;10502498;28;20040;-72
2021/05/08 16:13:48;;;;;;;1.77;1.00;;;;;;;16.73;29.51;100029.63;10483403;28;20068;-71
2021/05/08 16:18:51;;;;;;;2.55;1.10;;;;;;;16.35;30.94;100021.16;10484161;28;20067;-70
2021/05/08 16:23:52;;;;;;;2.45;1.17;;;;;;;16.58;29.62;100015.41;10500421;28;20064;-71
2021/05/08 16:28:53;;;;;;;0.60;0.60;;;;;;;16.25;29.97;100015.50;10501818;28;20371;-70
2021/05/08 16:33:55;;;;;;;1.77;1.60;;;;;;;16.53;29.43;100006.84;10500084;28;20442;-71
2021/05/08 16:38:56;;;;;;;1.63;1.10;;;;;;;16.32;32.10;100010.72;10500295;28;20076;-70
2021/05/08 16:43:57;;;;;;;2.25;0.73;;;;;;;16.25;30.92;99998.75;10499524;28;20060;-71
2021/05/08 16:49:04;;;;;;;2.03;0.90;;;;;;;16.04;30.86;99988.38;10513235;28;20098;-70
2021/05/08 16:54:05;;;;;;;1.60;1.50;;;;;;;15.96;31.51;99987.09;10541522;28;20078;-69
2021/05/08 16:59:08;;;;;;;1.58;1.33;;;;;;;15.63;31.53;99988.81;10541770;28;20062;-69
2021/05/08 17:04:10;;;;;;;2.05;1.00;;;;;;;15.61;31.75;99985.34;10541819;28;20039;-69
2021/05/08 17:09:11;;;;;;;1.60;1.35;;;;;;;15.59;31.44;99973.16;10542154;28;20047;-69
2021/05/08 17:14:12;;;;;;;9.90;9.13;;;;;;;15.33;32.83;99974.53;10541703;28;20044;-70
2021/05/08 17:19:13;;;;;;;4.95;4.55;;;;;;;15.29;32.57;99975.63;10542233;28;20087;-70
2021/05/08 17:24:15;;;;;;;2.72;2.22;;;;;;;15.22;33.09;99971.56;10523998;28;20528;-71
2021/05/08 17:29:17;;;;;;;2.88;2.45;;;;;;;15.00;33.13;99967.38;10523806;28;20048;-71
2021/05/08 17:34:20;;;;;;;2.85;1.88;;;;;;;15.10;32.72;99965.97;10541040;28;20493;-71
2021/05/08 17:39:26;;;;;;;2.10;1.85;;;;;;;15.10;33.09;99973.06;10530536;28;20135;-70
2021/05/08 17:44:27;;;;;;;2.37;1.57;;;;;;;14.76;34.98;99985.34;10550483;28;20180;-69
2021/05/08 17:49:30;;;;;;;2.05;1.50;;;;;;;14.96;33.42;99980.84;10549492;28;20408;-72
2021/05/08 17:54:31;;;;;;;2.10;1.52;;;;;;;14.93;33.17;99981.88;10530797;28;20127;-71
2021/05/08 17:59:33;;;;;;;2.03;1.83;;;;;;;14.61;34.23;99979.03;10530567;28;20051;-70
2021/05/08 18:04:34;;;;;;;2.08;1.73;;;;;;;14.76;33.94;99982.69;10549050;28;20044;-72
2021/05/08 18:09:37;;;;;;;2.05;1.58;;;;;;;14.89;33.75;99985.59;10549825;28;20080;-71
2021/05/08 18:14:39;;;;;;;2.22;1.50;;;;;;;14.78;34.36;99985.25;10549640;28;20085;-72
2021/05/08 18:19:40;;;;;;;2.30;1.70;;;;;;;14.75;34.60;99988.09;10549956;28;20054;-72
2021/05/08 18:24:42;;;;;;;2.75;2.30;;;;;;;14.51;35.81;99987.47;10547795;28;20036;-71
2021/05/08 18:29:43;;;;;;;3.33;1.98;;;;;;;14.49;34.90;99984.91;10548918;28;20099;-71
2021/05/08 18:34:44;;;;;;;1.67;1.55;;;;;;;14.40;35.25;99982.69;10530543;28;20400;-71
2021/05/08 18:39:46;;;;;;;2.22;2.03;;;;;;;14.05;36.63;99990.50;10548592;28;20039;-72
2021/05/08 18:44:49;;;;;;;2.63;2.17;;;;;;;14.14;36.31;100000.66;10547936;28;20044;-71
2021/05/08 18:49:50;;;;;;;3.38;3.08;;;;;;;13.74;37.39;99999.00;10546043;28;20036;-72
2021/05/08 18:54:51;;;;;;;3.35;2.63;;;;;;;13.80;37.44;100003.97;10547074;28;20045;-72
2021/05/08 18:59:54;;;;;;;3.40;2.33;;;;;;;13.93;36.64;100003.44;10529695;28;20048;-71
2021/05/08 19:04:58;;;;;;;2.10;1.90;;;;;;;13.92;36.67;100001.72;10547244;28;20040;-72
2021/05/08 19:09:59;;;;;;;3.22;2.38;;;;;;;13.71;38.05;99998.25;10547632;28;20040;-71
2021/05/08 19:15:01;;;;;;;4.07;3.22;;;;;;;13.67;37.44;99992.25;10547545;28;20539;-71
2021/05/08 19:20:04;;;;;;;3.13;2.70;;;;;;;13.68;36.94;99990.47;10528165;28;20052;-72
2021/05/08 19:25:06;;;;;;;3.25;2.97;;;;;;;13.52;38.32;99985.03;10528315;28;20062;-72
2021/05/08 19:30:08;;;;;;;2.65;2.22;;;;;;;13.46;37.54;99986.19;10546336;28;20059;-72
2021/05/08 19:35:09;;;;;;;3.00;2.80;;;;;;;13.33;37.88;99971.78;10545825;28;20040;-72
2021/05/08 19:40:11;;;;;;;4.25;3.03;;;;;;;13.39;37.30;99979.44;10548211;28;20044;-73
2021/05/08 19:45:13;;;;;;;3.13;2.85;;;;;;;13.04;38.80;99981.78;10530700;28;20059;-73
2021/05/08 19:50:14;;;;;;;2.83;2.60;;;;;;;13.04;38.99;99980.94;10546098;28;20048;-71
2021/05/08 19:55:17;;;;;;;3.85;3.50;;;;;;;13.28;37.91;99985.19;10547813;28;20037;-72
2021/05/08 20:00:19;;;;;;;4.80;3.42;;;;;;;13.02;39.10;99974.88;10546681;28;20047;-71
2021/05/08 20:05:20;;;;;;;3.78;3.20;;;;;;;12.94;39.21;99979.63;10547128;28;20379;-72
2021/05/08 20:10:22;;;;;;;3.42;2.97;;;;;;;12.70;39.31;99978.84;10546934;28;20054;-73
2021/05/08 20:15:23;;;;;;;3.30;3.03;;;;;;;12.60;40.08;99973.94;10545933;28;20101;-73
2021/05/08 20:20:25;;;;;;;4.70;3.63;;;;;;;12.81;39.03;99964.31;10529065;28;20101;-73
2021/05/08 20:25:26;;;;;;;3.40;3.10;;;;;;;12.82;38.84;99965.16;10546527;28;20397;-72
2021/05/08 20:30:28;;;;;;;3.65;3.35;;;;;;;12.75;39.45;99964.56;10545827;28;20398;-71
2021/05/08 20:35:29;;;;;;;4.43;3.88;;;;;;;12.78;38.86;99963.56;10528123;28;20047;-72
2021/05/08 20:40:31;;;;;;;3.85;3.47;;;;;;;12.72;38.87;99962.06;10546943;28;20060;-71
2021/05/08 20:45:32;;;;;;;3.40;3.10;;;;;;;12.72;39.37;99958.56;10546103;28;20054;-73
2021/05/08 20:50:33;;;;;;;3.45;3.15;;;;;;;12.69;39.62;99948.13;10546478;28;20111;-72
2021/05/08 20:55:35;;;;;;;3.80;3.40;;;;;;;12.66;39.39;99959.69;10527458;28;20051;-73
2021/05/08 21:00:36;;;;;;;6.68;4.60;;;;;;;12.67;39.25;99942.94;10528098;28;20116;-72
2021/05/08 21:05:38;;;;;;;4.03;3.63;;;;;;;12.63;39.43;99939.56;10544786;28;20044;-72
2021/05/08 21:10:39;;;;;;;4.72;4.32;;;;;;;12.54;39.59;99944.34;10542731;28;20039;-71
2021/05/08 21:15:41;;;;;;;4.40;4.00;;;;;;;12.53;40.28;99937.38;10543847;28;20044;-73
2021/05/08 21:20:42;;;;;;;4.93;4.45;;;;;;;12.10;41.62;99934.69;10526135;28;20055;-72
2021/05/08 21:25:44;;;;;;;4.95;4.50;;;;;;;11.95;41.47;99931.78;10544135;28;20479;-73
2021/05/08 21:30:50;;;;;;;3.83;3.53;;;;;;;11.91;41.69;99933.69;10526165;28;20497;-72
2021/05/08 21:35:55;;;;;;;3.55;3.25;;;;;;;11.87;41.85;99934.75;10544194;28;20089;-71
2021/05/08 21:40:56;;;;;;;4.03;3.72;;;;;;;12.04;41.49;99919.13;10526722;28;20090;-71
2021/05/08 21:45:58;;;;;;;4.03;3.50;;;;;;;11.99;41.56;99920.22;10544957;28;20044;-72
2021/05/08 21:50:59;;;;;;;4.53;4.13;;;;;;;11.64;42.96;99922.38;10544030;28;20040;-71
2021/05/08 21:56:00;;;;;;;5.18;3.95;;;;;;;11.69;42.98;99917.84;10544118;28;20044;-72
2021/05/08 22:01:02;;;;;;;5.00;4.50;;;;;;;11.60;42.88;99919.03;10526495;28;20048;-72
2021/05/08 22:06:03;;;;;;;4.65;4.25;;;;;;;11.57;43.12;99924.41;10510950;28;20044;-72
2021/05/08 22:11:05;;;;;;;4.68;4.28;;;;;;;11.85;42.36;99929.50;10544238;28;20048;-72
2021/05/08 22:16:08;;;;;;;4.30;4.00;;;;;;;11.71;43.02;99930.94;10526180;28;20393;-72
2021/05/08 22:21:09;;;;;;;5.05;4.65;;;;;;;11.67;43.04;99926.69;10544412;28;20044;-72
2021/05/08 22:26:10;;;;;;;5.10;4.50;;;;;;;11.62;42.76;99932.13;10549157;28;20040;-71
2021/05/08 22:31:11;;;;;;;5.95;4.68;;;;;;;11.88;42.55;99927.69;10548608;28;20113;-70
2021/05/08 22:36:13;;;;;;;4.43;4.03;;;;;;;11.83;43.01;99919.97;10548353;28;20044;-71
2021/05/08 22:41:14;;;;;;;4.75;4.35;;;;;;;11.80;42.44;99920.03;10548189;28;20072;-71
2021/05/08 22:46:15;;;;;;;5.18;4.68;;;;;;;11.65;43.22;99912.75;10529917;28;20090;-72
2021/05/08 22:51:16;;;;;;;4.82;4.40;;;;;;;11.60;43.65;99912.91;10547531;28;20490;-71
2021/05/08 22:56:19;;;;;;;6.43;4.35;;;;;;;11.61;43.33;99917.25;10547635;28;20048;-71
2021/05/08 23:01:20;;;;;;;4.47;4.07;;;;;;;11.70;43.35;99911.66;10547488;28;20040;-70
2021/05/08 23:06:23;;;;;;;4.32;3.90;;;;;;;11.72;43.82;99901.03;10528794;28;20047;-71
2021/05/08 23:11:26;;;;;;;3.85;3.35;;;;;;;11.34;44.94;99892.84;10547030;28;20105;-71
2021/05/08 23:16:28;;;;;;;4.20;3.80;;;;;;;11.71;44.00;99889.66;10547637;28;20055;-70
2021/05/08 23:21:29;;;;;;;4.40;4.00;;;;;;;11.63;44.73;99892.56;10547922;28;20406;-72